CheckWX is a tool to help pilots better visualize weather data.  It is not intended as a substitute for an official pre-flight weather briefing.

05:04:21 UTC

SBIZ TAF
Prefeito Renato Moreira Airport
Imperatriz, Brazil
TAF SBIZ 222200Z 2300/2312 02005KT 9999 SCT008 TN23/2305Z TX26/2311Z BECMG 2304/2306 00000KT TS SCT005 FEW025CB BECMG 2307/2309 SCT005 RMK PEM

Mar-23@
00:00 UTC

Mar-23 @ 00:00 UTC

Mar-23@
04:00 UTC

Mar-23 @ 04:00 UTC

TAF SBIZ 222200Z 2300/2312 02005KT 9999 SCT008 TN23/2305Z TX26/2311Z

Expired

Wind
  • 020° at 5 KTS
Cloud Levels
  • Scattered at 800' AGL

Mar-23@
04:00 UTC

Mar-23 @ 04:00 UTC

Mar-23@
07:00 UTC

Mar-23 @ 07:00 UTC

BECMG 2304/2306 00000KT TS SCT005 FEW025CB

Becoming

Becoming Conditions expected by Sat, Mar 23, 2019 @ 06:00 UTC

Conditions
Thunderstorm
Cloud Levels
  • Scattered at 500' AGL
  • Few at 2,500' AGL

Mar-23@
07:00 UTC

Mar-23 @ 07:00 UTC

Mar-23@
12:00 UTC

Mar-23 @ 12:00 UTC

BECMG 2307/2309 SCT005 RMK PEM

Becoming

Becoming Conditions expected by Sat, Mar 23, 2019 @ 09:00 UTC

Conditions
Thunderstorm
Cloud Levels
  • Scattered at 500' AGL